X  Cerrar Datos meteorológicos de aviación METAR     LEBL Barcelona International Airport
Temperatura
8°C Temperatura
5°C Punto de rocío
82% Humedad



Viento
13 KM/H
8 MPH
4 M/S
7 NUDO



310°
NO
Condiciones actuales

Parcialmente nublado Parcialmente nublado
Presión 1016.92 (hPa) - 30.03 (inHg)
Visibilidad 6.2 (milla) - 10 (km)
Aeropuerto
Código de aeropuerto LEBL

localidad: Barcelona International Airport
Distancia: 14 (km)

Metar:
LEBL 170700Z 31007KT 290V350 9999 FEW040 08/05 Q1017 NOSIG

Hora: 17-04-2021 09:00 CEST